sensor_id;sensor_type;location;lat;lon;timestamp;pressure;altitude;pressure_sealevel;temperature;humidity
71976;BME280;60680;52.182;5.398;2023-02-23T00:03:44;101338.81;;;8.02;100.00
71976;BME280;60680;52.182;5.398;2023-02-23T00:06:11;101333.69;;;8.00;100.00
71976;BME280;60680;52.182;5.398;2023-02-23T00:08:39;101337.22;;;7.97;100.00
71976;BME280;60680;52.182;5.398;2023-02-23T00:11:09;101340.75;;;7.95;100.00
71976;BME280;60680;52.182;5.398;2023-02-23T00:13:39;101340.75;;;7.95;100.00
71976;BME280;60680;52.182;5.398;2023-02-23T00:16:09;101336.50;;;7.92;100.00
71976;BME280;60680;52.182;5.398;2023-02-23T00:18:38;101339.88;;;7.94;100.00
71976;BME280;60680;52.182;5.398;2023-02-23T00:21:15;101330.41;;;7.95;100.00
71976;BME280;60680;52.182;5.398;2023-02-23T00:23:50;101328.69;;;7.94;100.00
71976;BME280;60680;52.182;5.398;2023-02-23T00:26:18;101329.59;;;7.93;100.00
71976;BME280;60680;52.182;5.398;2023-02-23T00:28:47;101324.50;;;7.90;100.00
71976;BME280;60680;52.182;5.398;2023-02-23T00:31:14;101325.47;;;7.86;100.00
71976;BME280;60680;52.182;5.398;2023-02-23T00:33:40;101331.56;;;7.85;100.00
71976;BME280;60680;52.182;5.398;2023-02-23T00:36:13;101328.97;;;7.85;100.00
71976;BME280;60680;52.182;5.398;2023-02-23T00:38:40;101323.00;;;7.83;100.00
71976;BME280;60680;52.182;5.398;2023-02-23T00:41:12;101326.47;;;7.82;100.00
71976;BME280;60680;52.182;5.398;2023-02-23T00:43:41;101320.44;;;7.81;100.00
71976;BME280;60680;52.182;5.398;2023-02-23T00:46:14;101325.63;;;7.81;100.00
71976;BME280;60680;52.182;5.398;2023-02-23T00:48:44;101326.47;;;7.82;100.00
71976;BME280;60680;52.182;5.398;2023-02-23T00:51:11;101317.84;;;7.81;100.00
71976;BME280;60680;52.182;5.398;2023-02-23T00:53:39;101325.66;;;7.80;100.00
71976;BME280;60680;52.182;5.398;2023-02-23T00:56:07;101318.81;;;7.79;100.00
71976;BME280;60680;52.182;5.398;2023-02-23T00:58:33;101330.94;;;7.78;100.00
71976;BME280;60680;52.182;5.398;2023-02-23T01:01:00;101330.97;;;7.76;100.00
71976;BME280;60680;52.182;5.398;2023-02-23T01:03:27;101327.53;;;7.76;100.00
71976;BME280;60680;52.182;5.398;2023-02-23T01:06:01;101318.88;;;7.75;100.00
71976;BME280;60680;52.182;5.398;2023-02-23T01:08:33;101320.69;;;7.73;100.00
71976;BME280;60680;52.182;5.398;2023-02-23T01:11:07;101324.06;;;7.75;100.00
71976;BME280;60680;52.182;5.398;2023-02-23T01:13:38;101320.69;;;7.73;100.00
71976;BME280;60680;52.182;5.398;2023-02-23T01:16:11;101320.75;;;7.72;100.00
71976;BME280;60680;52.182;5.398;2023-02-23T01:18:39;101325.94;;;7.72;100.00
71976;BME280;60680;52.182;5.398;2023-02-23T01:21:18;101327.59;;;7.73;100.00
71976;BME280;60680;52.182;5.398;2023-02-23T01:23:46;101324.22;;;7.71;100.00
71976;BME280;60680;52.182;5.398;2023-02-23T01:26:21;101321.59;;;7.72;100.00
71976;BME280;60680;52.182;5.398;2023-02-23T01:28:49;101322.53;;;7.70;100.00
71976;BME280;60680;52.182;5.398;2023-02-23T01:31:16;101326.00;;;7.69;100.00
71976;BME280;60680;52.182;5.398;2023-02-23T01:33:44;101323.41;;;7.69;100.00
71976;BME280;60680;52.182;5.398;2023-02-23T01:36:11;101328.56;;;7.70;100.00
71976;BME280;60680;52.182;5.398;2023-02-23T01:38:39;101323.47;;;7.67;100.00
71976;BME280;60680;52.182;5.398;2023-02-23T01:41:06;101325.16;;;7.68;100.00
71976;BME280;60680;52.182;5.398;2023-02-23T01:43:34;101332.06;;;7.69;100.00
71976;BME280;60680;52.182;5.398;2023-02-23T01:46:02;101330.31;;;7.70;100.00
71976;BME280;60680;52.182;5.398;2023-02-23T01:48:35;101325.09;;;7.71;100.00
71976;BME280;60680;52.182;5.398;2023-02-23T01:51:10;101324.22;;;7.71;100.00
71976;BME280;60680;52.182;5.398;2023-02-23T01:53:41;101316.44;;;7.71;100.00
71976;BME280;60680;52.182;5.398;2023-02-23T01:56:20;101325.09;;;7.71;100.00
71976;BME280;60680;52.182;5.398;2023-02-23T01:58:50;101315.56;;;7.72;100.00
71976;BME280;60680;52.182;5.398;2023-02-23T02:01:18;101325.97;;;7.70;100.00
71976;BME280;60680;52.182;5.398;2023-02-23T02:03:48;101320.81;;;7.69;100.00
71976;BME280;60680;52.182;5.398;2023-02-23T02:06:18;101328.59;;;7.69;100.00
71976;BME280;60680;52.182;5.398;2023-02-23T02:08:50;101329.47;;;7.69;100.00
71976;BME280;60680;52.182;5.398;2023-02-23T02:11:21;101332.91;;;7.70;100.00
71976;BME280;60680;52.182;5.398;2023-02-23T02:14:36;101333.63;;;7.73;100.00
71976;BME280;60680;52.182;5.398;2023-02-23T02:25:23;101333.69;;;7.72;100.00
71976;BME280;60680;52.182;5.398;2023-02-23T02:37:34;101336.31;;;7.70;100.00
71976;BME280;60680;52.182;5.398;2023-02-23T02:43:00;101336.47;;;7.66;100.00
71976;BME280;60680;52.182;5.398;2023-02-23T02:56:24;101331.38;;;7.63;100.00
71976;BME280;60680;52.182;5.398;2023-02-23T02:58:52;101321.00;;;7.63;100.00
71976;BME280;60680;52.182;5.398;2023-02-23T03:01:20;101330.50;;;7.64;100.00
71976;BME280;60680;52.182;5.398;2023-02-23T03:04:22;101327.78;;;7.67;100.00
71976;BME280;60680;52.182;5.398;2023-02-23T03:10:08;101327.91;;;7.64;100.00
71976;BME280;60680;52.182;5.398;2023-02-23T03:13:06;101325.38;;;7.61;100.00
71976;BME280;60680;52.182;5.398;2023-02-23T03:16:14;101331.47;;;7.60;100.00
71976;BME280;60680;52.182;5.398;2023-02-23T03:22:04;101330.63;;;7.59;100.00
71976;BME280;60680;52.182;5.398;2023-02-23T03:25:06;101327.13;;;7.60;100.00
71976;BME280;60680;52.182;5.398;2023-02-23T03:34:21;101330.63;;;7.59;100.00
71976;BME280;60680;52.182;5.398;2023-02-23T03:37:24;101335.81;;;7.59;100.00
71976;BME280;60680;52.182;5.398;2023-02-23T03:40:19;101338.44;;;7.58;100.00
71976;BME280;60680;52.182;5.398;2023-02-23T03:43:09;101335.06;;;7.55;100.00
71976;BME280;60680;52.182;5.398;2023-02-23T03:45:55;101338.53;;;7.54;100.00
71976;BME280;60680;52.182;5.398;2023-02-23T03:48:44;101343.72;;;7.54;100.00
71976;BME280;60680;52.182;5.398;2023-02-23T03:51:32;101342.06;;;7.52;100.00
71976;BME280;60680;52.182;5.398;2023-02-23T03:54:58;101348.91;;;7.54;100.00
71976;BME280;60680;52.182;5.398;2023-02-23T03:57:48;101356.72;;;7.53;100.00
71976;BME280;60680;52.182;5.398;2023-02-23T04:00:40;101354.13;;;7.53;100.00
71976;BME280;60680;52.182;5.398;2023-02-23T04:03:30;101351.50;;;7.54;100.00
71976;BME280;60680;52.182;5.398;2023-02-23T04:06:17;101358.38;;;7.54;100.00
71976;BME280;60680;52.182;5.398;2023-02-23T04:09:06;101349.81;;;7.52;100.00
71976;BME280;60680;52.182;5.398;2023-02-23T04:12:05;101349.78;;;7.53;100.00
71976;BME280;60680;52.182;5.398;2023-02-23T04:17:28;101355.00;;;7.52;100.00
71976;BME280;60680;52.182;5.398;2023-02-23T04:19:55;101355.06;;;7.50;100.00
71976;BME280;60680;52.182;5.398;2023-02-23T04:22:22;101357.66;;;7.50;100.00
71976;BME280;60680;52.182;5.398;2023-02-23T04:24:49;101359.38;;;7.50;100.00
71976;BME280;60680;52.182;5.398;2023-02-23T04:27:16;101366.31;;;7.49;100.00
71976;BME280;60680;52.182;5.398;2023-02-23T04:29:42;101358.56;;;7.48;100.00
71976;BME280;60680;52.182;5.398;2023-02-23T04:32:15;101364.63;;;7.48;100.00
71976;BME280;60680;52.182;5.398;2023-02-23T04:34:43;101363.81;;;7.46;100.00
71976;BME280;60680;52.182;5.398;2023-02-23T04:37:10;101364.69;;;7.45;100.00
71976;BME280;60680;52.182;5.398;2023-02-23T04:39:36;101370.78;;;7.44;100.00
71976;BME280;60680;52.182;5.398;2023-02-23T04:42:03;101371.66;;;7.43;100.00
71976;BME280;60680;52.182;5.398;2023-02-23T04:44:30;101376.91;;;7.42;100.00
71976;BME280;60680;52.182;5.398;2023-02-23T04:46:56;101377.75;;;7.42;100.00
71976;BME280;60680;52.182;5.398;2023-02-23T04:49:23;101384.69;;;7.40;100.00
71976;BME280;60680;52.182;5.398;2023-02-23T04:51:49;101379.56;;;7.39;100.00
71976;BME280;60680;52.182;5.398;2023-02-23T04:54:16;101383.06;;;7.38;100.00
71976;BME280;60680;52.182;5.398;2023-02-23T04:56:42;101389.03;;;7.40;100.00
71976;BME280;60680;52.182;5.398;2023-02-23T04:59:09;101386.44;;;7.40;100.00
71976;BME280;60680;52.182;5.398;2023-02-23T05:01:35;101387.28;;;7.40;100.00
71976;BME280;60680;52.182;5.398;2023-02-23T05:04:02;101385.53;;;7.41;100.00
71976;BME280;60680;52.182;5.398;2023-02-23T05:06:30;101383.78;;;7.41;100.00
71976;BME280;60680;52.182;5.398;2023-02-23T05:08:57;101388.94;;;7.43;100.00
71976;BME280;60680;52.182;5.398;2023-02-23T05:11:23;101388.97;;;7.41;100.00
71976;BME280;60680;52.182;5.398;2023-02-23T05:13:51;101386.38;;;7.41;100.00
71976;BME280;60680;52.182;5.398;2023-02-23T05:16:19;101393.31;;;7.41;100.00
71976;BME280;60680;52.182;5.398;2023-02-23T05:18:46;101396.75;;;7.41;100.00
71976;BME280;60680;52.182;5.398;2023-02-23T05:21:12;101397.66;;;7.40;100.00
71976;BME280;60680;52.182;5.398;2023-02-23T05:23:39;101402.84;;;7.39;100.00
71976;BME280;60680;52.182;5.398;2023-02-23T05:26:08;101397.66;;;7.40;100.00
71976;BME280;60680;52.182;5.398;2023-02-23T05:28:37;101395.09;;;7.39;100.00
71976;BME280;60680;52.182;5.398;2023-02-23T05:31:04;101405.44;;;7.39;100.00
71976;BME280;60680;52.182;5.398;2023-02-23T05:33:32;101408.06;;;7.37;100.00
71976;BME280;60680;52.182;5.398;2023-02-23T05:35:59;101399.44;;;7.38;100.00
71976;BME280;60680;52.182;5.398;2023-02-23T05:38:26;101402.91;;;7.37;100.00
71976;BME280;60680;52.182;5.398;2023-02-23T05:40:52;101404.63;;;7.37;100.00
71976;BME280;60680;52.182;5.398;2023-02-23T05:43:18;101397.78;;;7.35;100.00
71976;BME280;60680;52.182;5.398;2023-02-23T05:45:45;101403.84;;;7.34;100.00
71976;BME280;60680;52.182;5.398;2023-02-23T05:48:11;101405.59;;;7.34;100.00
71976;BME280;60680;52.182;5.398;2023-02-23T05:50:38;101407.38;;;7.32;100.00
71976;BME280;60680;52.182;5.398;2023-02-23T05:53:05;101405.72;;;7.29;100.00
71976;BME280;60680;52.182;5.398;2023-02-23T05:55:31;101410.94;;;7.28;100.00
71976;BME280;60680;52.182;5.398;2023-02-23T05:57:57;101403.19;;;7.26;100.00
71976;BME280;60680;52.182;5.398;2023-02-23T06:00:24;101404.94;;;7.26;100.00
71976;BME280;60680;52.182;5.398;2023-02-23T06:02:50;101404.94;;;7.26;100.00
71976;BME280;60680;52.182;5.398;2023-02-23T06:05:19;101407.53;;;7.26;100.00
71976;BME280;60680;52.182;5.398;2023-02-23T06:07:45;101404.94;;;7.26;100.00
71976;BME280;60680;52.182;5.398;2023-02-23T06:10:12;101414.44;;;7.25;100.00
71976;BME280;60680;52.182;5.398;2023-02-23T06:12:39;101415.28;;;7.26;100.00
71976;BME280;60680;52.182;5.398;2023-02-23T06:15:06;101415.28;;;7.26;100.00
71976;BME280;60680;52.182;5.398;2023-02-23T06:17:32;101413.63;;;7.25;100.00
71976;BME280;60680;52.182;5.398;2023-02-23T06:19:58;101420.50;;;7.24;100.00
71976;BME280;60680;52.182;5.398;2023-02-23T06:22:27;101411.91;;;7.24;100.00
71976;BME280;60680;52.182;5.398;2023-02-23T06:24:53;101426.56;;;7.25;100.00
71976;BME280;60680;52.182;5.398;2023-02-23T06:27:19;101411.88;;;7.25;100.00
71976;BME280;60680;52.182;5.398;2023-02-23T06:29:46;101421.31;;;7.26;100.00
71976;BME280;60680;52.182;5.398;2023-02-23T06:32:12;101417.88;;;7.26;100.00
71976;BME280;60680;52.182;5.398;2023-02-23T06:34:39;101417.00;;;7.27;100.00
71976;BME280;60680;52.182;5.398;2023-02-23T06:37:05;101426.47;;;7.28;100.00
71976;BME280;60680;52.182;5.398;2023-02-23T06:39:34;101433.38;;;7.27;100.00
71976;BME280;60680;52.182;5.398;2023-02-23T06:42:00;101446.28;;;7.29;100.00
71976;BME280;60680;52.182;5.398;2023-02-23T06:44:27;101444.53;;;7.29;100.00
71976;BME280;60680;52.182;5.398;2023-02-23T06:46:53;101447.13;;;7.29;100.00
71976;BME280;60680;52.182;5.398;2023-02-23T06:49:20;101448.91;;;7.27;100.00
71976;BME280;60680;52.182;5.398;2023-02-23T06:51:46;101450.69;;;7.25;100.00
71976;BME280;60680;52.182;5.398;2023-02-23T06:54:13;101455.84;;;7.27;100.00
71976;BME280;60680;52.182;5.398;2023-02-23T06:56:39;101449.75;;;7.28;100.00
71976;BME280;60680;52.182;5.398;2023-02-23T06:59:06;101453.25;;;7.27;100.00
71976;BME280;60680;52.182;5.398;2023-02-23T07:01:32;101456.69;;;7.27;100.00
71976;BME280;60680;52.182;5.398;2023-02-23T07:03:58;101457.44;;;7.31;100.00
71976;BME280;60680;52.182;5.398;2023-02-23T07:06:25;101463.41;;;7.33;100.00
71976;BME280;60680;52.182;5.398;2023-02-23T07:08:51;101465.13;;;7.34;100.00
71976;BME280;60680;52.182;5.398;2023-02-23T07:11:18;101467.72;;;7.34;100.00
71976;BME280;60680;52.182;5.398;2023-02-23T07:13:45;101467.72;;;7.34;100.00
71976;BME280;60680;52.182;5.398;2023-02-23T07:16:12;101474.56;;;7.35;100.00
71976;BME280;60680;52.182;5.398;2023-02-23T07:18:40;101479.75;;;7.35;100.00
71976;BME280;60680;52.182;5.398;2023-02-23T07:21:06;101491.00;;;7.34;100.00
71976;BME280;60680;52.182;5.398;2023-02-23T07:23:33;101494.44;;;7.34;100.00
71976;BME280;60680;52.182;5.398;2023-02-23T07:25:59;101488.44;;;7.34;100.00
71976;BME280;60680;52.182;5.398;2023-02-23T07:28:26;101495.34;;;7.33;100.00
71976;BME280;60680;52.182;5.398;2023-02-23T07:30:56;101499.66;;;7.33;100.00
71976;BME280;60680;52.182;5.398;2023-02-23T07:33:23;101496.19;;;7.34;100.00
71976;BME280;60680;52.182;5.398;2023-02-23T07:35:50;101505.66;;;7.35;100.00
71976;BME280;60680;52.182;5.398;2023-02-23T07:38:17;101509.94;;;7.36;100.00
71976;BME280;60680;52.182;5.398;2023-02-23T07:40:44;101512.53;;;7.36;100.00
71976;BME280;60680;52.182;5.398;2023-02-23T07:43:10;101513.41;;;7.35;100.00
71976;BME280;60680;52.182;5.398;2023-02-23T07:45:37;101509.03;;;7.37;100.00
71976;BME280;60680;52.182;5.398;2023-02-23T07:48:04;101511.59;;;7.39;100.00
71976;BME280;60680;52.182;5.398;2023-02-23T07:50:30;101510.75;;;7.38;100.00
71976;BME280;60680;52.182;5.398;2023-02-23T07:52:56;101521.03;;;7.41;100.00
71976;BME280;60680;52.182;5.398;2023-02-23T07:55:23;101523.56;;;7.43;100.00
71976;BME280;60680;52.182;5.398;2023-02-23T07:57:50;101521.81;;;7.45;100.00
71976;BME280;60680;52.182;5.398;2023-02-23T08:00:16;101526.94;;;7.46;100.00
71976;BME280;60680;52.182;5.398;2023-02-23T08:02:43;101523.44;;;7.47;100.00
71976;BME280;60680;52.182;5.398;2023-02-23T08:05:10;101526.00;;;7.49;100.00
71976;BME280;60680;52.182;5.398;2023-02-23T08:07:36;101529.44;;;7.49;100.00
71976;BME280;60680;52.182;5.398;2023-02-23T08:10:03;101525.03;;;7.53;100.00
71976;BME280;60680;52.182;5.398;2023-02-23T08:12:31;101537.06;;;7.55;100.00
71976;BME280;60680;52.182;5.398;2023-02-23T08:14:59;101533.63;;;7.55;100.00
71976;BME280;60680;52.182;5.398;2023-02-23T08:17:25;101538.66;;;7.60;100.00
71976;BME280;60680;52.182;5.398;2023-02-23T08:19:52;101530.88;;;7.61;100.00
71976;BME280;60680;52.182;5.398;2023-02-23T08:22:19;101536.78;;;7.65;100.00
71976;BME280;60680;52.182;5.398;2023-02-23T08:24:46;101536.72;;;7.68;100.00
71976;BME280;60680;52.182;5.398;2023-02-23T08:27:13;101540.97;;;7.70;100.00
71976;BME280;60680;52.182;5.398;2023-02-23T08:29:39;101548.72;;;7.72;100.00
71976;BME280;60680;52.182;5.398;2023-02-23T08:32:06;101548.63;;;7.75;100.00
71976;BME280;60680;52.182;5.398;2023-02-23T08:34:39;101552.84;;;7.78;100.00
71976;BME280;60680;52.182;5.398;2023-02-23T08:37:06;101557.19;;;7.77;100.00
71976;BME280;60680;52.182;5.398;2023-02-23T08:39:33;101555.50;;;7.76;100.00
71976;BME280;60680;52.182;5.398;2023-02-23T08:41:59;101558.97;;;7.75;100.00
71976;BME280;60680;52.182;5.398;2023-02-23T08:44:26;101565.00;;;7.75;100.00
71976;BME280;60680;52.182;5.398;2023-02-23T08:46:52;101572.75;;;7.77;100.00
71976;BME280;60680;52.182;5.398;2023-02-23T08:49:21;101573.56;;;7.79;100.00
71976;BME280;60680;52.182;5.398;2023-02-23T08:51:48;101570.16;;;7.77;100.00
71976;BME280;60680;52.182;5.398;2023-02-23T08:54:15;101576.25;;;7.74;100.00
71976;BME280;60680;52.182;5.398;2023-02-23T08:56:43;101571.91;;;7.76;100.00
71976;BME280;60680;52.182;5.398;2023-02-23T08:59:11;101576.97;;;7.80;100.00
71976;BME280;60680;52.182;5.398;2023-02-23T09:01:37;101572.59;;;7.82;100.00
71976;BME280;60680;52.182;5.398;2023-02-23T09:04:04;101575.16;;;7.83;100.00
71976;BME280;60680;52.182;5.398;2023-02-23T09:06:31;101582.88;;;7.86;100.00
71976;BME280;60680;52.182;5.398;2023-02-23T09:09:00;101577.63;;;7.88;100.00
71976;BME280;60680;52.182;5.398;2023-02-23T09:11:27;101584.56;;;7.87;100.00
71976;BME280;60680;52.182;5.398;2023-02-23T09:13:53;101588.84;;;7.88;100.00
71976;BME280;60680;52.182;5.398;2023-02-23T09:16:20;101589.75;;;7.87;100.00
71976;BME280;60680;52.182;5.398;2023-02-23T09:18:47;101590.59;;;7.88;100.00
71976;BME280;60680;52.182;5.398;2023-02-23T09:21:16;101595.88;;;7.85;100.00
71976;BME280;60680;52.182;5.398;2023-02-23T09:23:50;101592.44;;;7.84;100.00
71976;BME280;60680;52.182;5.398;2023-02-23T09:26:18;101590.69;;;7.85;100.00
71976;BME280;60680;52.182;5.398;2023-02-23T09:28:45;101592.47;;;7.83;100.00
71976;BME280;60680;52.182;5.398;2023-02-23T09:31:19;101599.31;;;7.84;100.00
71976;BME280;60680;52.182;5.398;2023-02-23T09:33:47;101605.31;;;7.86;100.00
71976;BME280;60680;52.182;5.398;2023-02-23T09:36:17;101606.97;;;7.88;100.00
71976;BME280;60680;52.182;5.398;2023-02-23T09:38:46;101606.94;;;7.90;100.00
71976;BME280;60680;52.182;5.398;2023-02-23T09:47:20;101611.03;;;7.99;100.00
71976;BME280;60680;52.182;5.398;2023-02-23T09:49:50;101609.31;;;7.99;100.00
71976;BME280;60680;52.182;5.398;2023-02-23T09:52:23;101610.84;;;8.05;100.00
71976;BME280;60680;52.182;5.398;2023-02-23T09:54:50;101614.28;;;8.05;100.00
71976;BME280;60680;52.182;5.398;2023-02-23T09:57:22;101609.97;;;8.06;100.00
71976;BME280;60680;52.182;5.398;2023-02-23T09:59:50;101609.06;;;8.07;100.00
71976;BME280;60680;52.182;5.398;2023-02-23T10:04:51;101613.28;;;8.11;100.00
71976;BME280;60680;52.182;5.398;2023-02-23T10:15:36;101620.19;;;8.12;100.00
71976;BME280;60680;52.182;5.398;2023-02-23T10:18:27;101621.81;;;8.16;100.00
71976;BME280;60680;52.182;5.398;2023-02-23T10:21:17;101626.13;;;8.15;100.00
71976;BME280;60680;52.182;5.398;2023-02-23T10:23:52;101630.34;;;8.18;100.00
71976;BME280;60680;52.182;5.398;2023-02-23T10:26:26;101624.41;;;8.16;100.00
71976;BME280;60680;52.182;5.398;2023-02-23T10:28:57;101628.81;;;8.12;100.00
71976;BME280;60680;52.182;5.398;2023-02-23T10:33:57;101628.66;;;8.17;100.00
71976;BME280;60680;52.182;5.398;2023-02-23T10:36:37;101632.06;;;8.19;100.00
71976;BME280;60680;52.182;5.398;2023-02-23T10:39:08;101639.84;;;8.19;100.00
71976;BME280;60680;52.182;5.398;2023-02-23T10:41:36;101642.34;;;8.22;100.00
71976;BME280;60680;52.182;5.398;2023-02-23T10:44:05;101643.22;;;8.23;100.00
71976;BME280;60680;52.182;5.398;2023-02-23T10:47:00;101644.78;;;8.28;100.00
71976;BME280;60680;52.182;5.398;2023-02-23T10:49:38;101647.22;;;8.33;100.00
71976;BME280;60680;52.182;5.398;2023-02-23T10:52:10;101644.69;;;8.31;100.00
71976;BME280;60680;52.182;5.398;2023-02-23T10:54:45;101646.50;;;8.29;99.96
71976;BME280;60680;52.182;5.398;2023-02-23T10:57:27;101644.69;;;8.31;99.97
71976;BME280;60680;52.182;5.398;2023-02-23T11:00:25;101648.84;;;8.37;99.84
71976;BME280;60680;52.182;5.398;2023-02-23T11:03:00;101647.06;;;8.39;99.59
71976;BME280;60680;52.182;5.398;2023-02-23T11:05:49;101654.78;;;8.44;100.00
71976;BME280;60680;52.182;5.398;2023-02-23T11:11:04;101639.25;;;8.42;100.00
71976;BME280;60680;52.182;5.398;2023-02-23T11:13:42;101629.56;;;8.47;100.00
71976;BME280;60680;52.182;5.398;2023-02-23T11:16:11;101639.97;;;8.46;99.41
71976;BME280;60680;52.182;5.398;2023-02-23T11:18:50;101630.66;;;8.38;99.53
71976;BME280;60680;52.182;5.398;2023-02-23T11:21:31;101638.56;;;8.34;100.00
71976;BME280;60680;52.182;5.398;2023-02-23T11:24:26;101644.56;;;8.36;100.00
71976;BME280;60680;52.182;5.398;2023-02-23T11:26:58;101647.19;;;8.34;100.00
71976;BME280;60680;52.182;5.398;2023-02-23T11:29:38;101648.97;;;8.32;99.90
71976;BME280;60680;52.182;5.398;2023-02-23T11:32:09;101647.31;;;8.30;99.76
71976;BME280;60680;52.182;5.398;2023-02-23T11:34:39;101647.31;;;8.30;99.49
71976;BME280;60680;52.182;5.398;2023-02-23T11:39:54;101659.31;;;8.34;99.89
71976;BME280;60680;52.182;5.398;2023-02-23T11:42:25;101655.09;;;8.30;99.55
71976;BME280;60680;52.182;5.398;2023-02-23T11:45:14;101649.97;;;8.28;99.30
71976;BME280;60680;52.182;5.398;2023-02-23T11:47:44;101645.66;;;8.29;99.12
71976;BME280;60680;52.182;5.398;2023-02-23T11:50:33;101651.75;;;8.26;98.80
71976;BME280;60680;52.182;5.398;2023-02-23T11:53:05;101649.31;;;8.20;99.75
71976;BME280;60680;52.182;5.398;2023-02-23T11:55:37;101646.69;;;8.22;99.47
71976;BME280;60680;52.182;5.398;2023-02-23T11:58:13;101654.44;;;8.23;99.85
71976;BME280;60680;52.182;5.398;2023-02-23T12:00:42;101648.44;;;8.21;99.56
71976;BME280;60680;52.182;5.398;2023-02-23T12:03:19;101650.09;;;8.24;99.61
71976;BME280;60680;52.182;5.398;2023-02-23T12:05:52;101656.00;;;8.29;100.00
71976;BME280;60680;52.182;5.398;2023-02-23T12:08:31;101650.69;;;8.33;100.00
71976;BME280;60680;52.182;5.398;2023-02-23T12:11:02;101649.72;;;8.37;100.00
71976;BME280;60680;52.182;5.398;2023-02-23T12:13:38;101651.41;;;8.38;100.00
71976;BME280;60680;52.182;5.398;2023-02-23T12:18:56;101656.44;;;8.45;99.33
71976;BME280;60680;52.182;5.398;2023-02-23T12:21:39;101649.47;;;8.47;99.39
71976;BME280;60680;52.182;5.398;2023-02-23T12:26:42;101646.59;;;8.56;97.30
71976;BME280;60680;52.182;5.398;2023-02-23T12:31:56;101647.56;;;8.53;97.11
71976;BME280;60680;52.182;5.398;2023-02-23T12:34:30;101643.00;;;8.62;96.94
71976;BME280;60680;52.182;5.398;2023-02-23T12:37:04;101643.69;;;8.67;97.14
71976;BME280;60680;52.182;5.398;2023-02-23T12:39:46;101649.75;;;8.67;96.81
71976;BME280;60680;52.182;5.398;2023-02-23T12:42:34;101647.47;;;8.56;96.35
71976;BME280;60680;52.182;5.398;2023-02-23T12:45:05;101642.38;;;8.53;96.24
71976;BME280;60680;52.182;5.398;2023-02-23T12:47:43;101648.16;;;8.63;97.07
71976;BME280;60680;52.182;5.398;2023-02-23T12:50:25;101657.44;;;8.70;96.19
71976;BME280;60680;52.182;5.398;2023-02-23T12:52:56;101651.56;;;8.65;95.98
71976;BME280;60680;52.182;5.398;2023-02-23T12:55:32;101659.50;;;8.59;95.66
71976;BME280;60680;52.182;5.398;2023-02-23T12:58:11;101658.88;;;8.51;94.38
71976;BME280;60680;52.182;5.398;2023-02-23T13:00:50;101658.13;;;8.46;94.48
71976;BME280;60680;52.182;5.398;2023-02-23T13:03:32;101656.44;;;8.45;95.36
71976;BME280;60680;52.182;5.398;2023-02-23T13:07:01;101659.84;;;8.47;95.23
71976;BME280;60680;52.182;5.398;2023-02-23T13:09:11;101657.84;;;8.56;96.05
71976;BME280;60680;52.182;5.398;2023-02-23T13:19:46;101634.34;;;8.91;93.21
71976;BME280;60680;52.182;5.398;2023-02-23T13:22:36;101639.38;;;8.95;92.81
71976;BME280;60680;52.182;5.398;2023-02-23T13:27:50;101639.47;;;8.92;93.89
71976;BME280;60680;52.182;5.398;2023-02-23T13:30:17;101640.53;;;8.87;93.76
71976;BME280;60680;52.182;5.398;2023-02-23T13:32:46;101636.28;;;8.84;94.60
71976;BME280;60680;52.182;5.398;2023-02-23T13:35:14;101636.47;;;8.78;94.58
71976;BME280;60680;52.182;5.398;2023-02-23T13:37:50;101622.72;;;8.74;94.93
71976;BME280;60680;52.182;5.398;2023-02-23T13:45:46;101640.38;;;8.63;96.16
71976;BME280;60680;52.182;5.398;2023-02-23T13:51:44;101646.47;;;8.61;97.10
71976;BME280;60680;52.182;5.398;2023-02-23T13:56:58;101654.34;;;8.57;95.79
71976;BME280;60680;52.182;5.398;2023-02-23T13:59:29;101649.28;;;8.54;96.05
71976;BME280;60680;52.182;5.398;2023-02-23T14:02:00;101649.16;;;8.57;96.40
71976;BME280;60680;52.182;5.398;2023-02-23T14:04:34;101643.94;;;8.59;96.29
71976;BME280;60680;52.182;5.398;2023-02-23T14:09:40;101641.25;;;8.62;96.19
71976;BME280;60680;52.182;5.398;2023-02-23T14:12:23;101652.03;;;8.78;96.13
71976;BME280;60680;52.182;5.398;2023-02-23T14:14:49;101641.34;;;8.89;94.70
71976;BME280;60680;52.182;5.398;2023-02-23T14:28:38;101666.69;;;8.79;93.90
71976;BME280;60680;52.182;5.398;2023-02-23T14:38:50;101654.34;;;8.57;94.73
71976;BME280;60680;52.182;5.398;2023-02-23T14:41:35;101656.06;;;8.59;94.92
71976;BME280;60680;52.182;5.398;2023-02-23T14:44:11;101655.16;;;8.60;93.97
71976;BME280;60680;52.182;5.398;2023-02-23T14:49:27;101651.06;;;8.52;95.35
71976;BME280;60680;52.182;5.398;2023-02-23T14:52:03;101648.47;;;8.52;95.74
71976;BME280;60680;52.182;5.398;2023-02-23T14:54:38;101661.34;;;8.55;95.63
71976;BME280;60680;52.182;5.398;2023-02-23T14:57:14;101645.13;;;8.47;95.64
71976;BME280;60680;52.182;5.398;2023-02-23T14:59:44;101656.56;;;8.42;95.65
71976;BME280;60680;52.182;5.398;2023-02-23T15:02:18;101663.53;;;8.38;96.75
71976;BME280;60680;52.182;5.398;2023-02-23T15:04:44;101662.84;;;8.31;97.13
71976;BME280;60680;52.182;5.398;2023-02-23T15:07:15;101675.06;;;8.26;97.48
71976;BME280;60680;52.182;5.398;2023-02-23T15:09:45;101666.59;;;8.21;98.04
71976;BME280;60680;52.182;5.398;2023-02-23T15:12:23;101665.88;;;8.16;98.43
71976;BME280;60680;52.182;5.398;2023-02-23T15:15:02;101670.31;;;8.11;99.09
71976;BME280;60680;52.182;5.398;2023-02-23T15:17:31;101686.06;;;8.03;99.47
71976;BME280;60680;52.182;5.398;2023-02-23T15:20:06;101679.31;;;7.97;99.80
71976;BME280;60680;52.182;5.398;2023-02-23T15:22:45;101675.06;;;7.95;100.00
71976;BME280;60680;52.182;5.398;2023-02-23T15:25:18;101674.41;;;7.87;100.00
71976;BME280;60680;52.182;5.398;2023-02-23T15:27:46;101676.25;;;7.82;100.00